Overview Statistics Trail Chart Weather Telemetry Raw packets
 

This is the latest recevied telemetry packets stored in our database for station/object OE6BYD-12. If no packets are shown the sender has not sent any telemetry packets the latest 10 day(s).

Telemetry packets is used to share measurements like repeteater parameters, battery voltage, radiation readings (or any other measurements).

<< 1 2 3 4 >>
Time Press* Temp.in* Hum* QNH* Temp.out*
1788698162 994.8 hPa 25.8 C deg 52 % 1025.9 hPa 27.3 C deg
1788696331 994.9 hPa 25.5 C deg 52.7 % 1026 hPa 26.6 C deg
1788694501 995 hPa 25.3 C deg 53.2 % 1026.2 hPa 25.7 C deg
1788692671 995.3 hPa 25.3 C deg 53.9 % 1026.5 hPa 25.9 C deg
1788690841 995.5 hPa 25.4 C deg 54.2 % 1026.7 hPa 25.3 C deg
1788689011 995.7 hPa 24.9 C deg 55.6 % 1027 hPa 24.8 C deg
1788687181 996.1 hPa 24.4 C deg 56.1 % 1027.5 hPa 23.9 C deg
1788685351 996.2 hPa 24 C deg 59.2 % 1027.6 hPa 22.8 C deg
1788683521 996.5 hPa 23.9 C deg 59.6 % 1027.9 hPa 21.6 C deg
1788681690 996.5 hPa 23.9 C deg 60 % 1028 hPa 20.6 C deg
1788679860 996.4 hPa 23.8 C deg 60.2 % 1027.8 hPa 18.8 C deg
1788678030 996.3 hPa 23.8 C deg 60.3 % 1027.8 hPa 17.4 C deg
1788676200 996.3 hPa 23.8 C deg 60.2 % 1027.8 hPa 16.6 C deg
1788674370 996.1 hPa 23.8 C deg 60.2 % 1027.5 hPa 16 C deg
1788672540 996 hPa 23.8 C deg 60.3 % 1027.4 hPa 15.8 C deg
1788670710 995.5 hPa 23.9 C deg 60.4 % 1026.9 hPa 15.5 C deg
1788668879 995.3 hPa 23.9 C deg 60.4 % 1026.7 hPa 15.6 C deg
1788667049 995 hPa 24 C deg 60.4 % 1026.3 hPa 15.9 C deg
1788665219 994.7 hPa 24 C deg 60.3 % 1026 hPa 15.9 C deg
1788663389 994.4 hPa 24.1 C deg 60.2 % 1025.7 hPa 16.5 C deg
1788661559 994.4 hPa 24.1 C deg 60.1 % 1025.8 hPa 16.4 C deg
1788659729 994.3 hPa 24.2 C deg 60 % 1025.6 hPa 16.4 C deg
1788657899 994.1 hPa 24.2 C deg 60 % 1025.4 hPa 16.4 C deg
1788656069 994 hPa 24.3 C deg 59.9 % 1025.3 hPa 16.4 C deg
1788654238 993.9 hPa 24.3 C deg 59.8 % 1025.1 hPa 16.6 C deg
*Used Equation Coefficients:
Press: 0, 1, 0
Temp.in: 0, 1, 0
Hum: 0, 1, 0
QNH: 0, 1, 0
Temp.out: 0, 1, 0

  • The parameter names for the analog channels will be Value1, Value2, Value3 (up to Value5) if station has not sent a PARAM-packet that specifies the parameter names for each analog channel.
  • Each analog value is a decimal number between 000 and 255 (according to APRS specifications). The receiver use the telemetry equation coefficientsto to restore the original sensor values. If no EQNS-packet with equation coefficients is sent we will show the values as is (this corresponds to the equation coefficients a=0, b=1 and c=0).
    The sent equation coefficients is used in the equation: a * value2 + b * value + c.
  • The units for the analog values will not be shown if station has not sent a UNIT-packet specifying what unit's to use.
  • The parameter names for the digital bits will be Bit1, Bit2, Bit3 (up to Bit8) if station has not sent a PARAM-packet that specifies the parameter names for each digital bit.
  • All bit labels will be named "On" if station has not sent a UNIT-packet that specifies the label of each bit.
  • A bit is considered to be On when the bit is 1 if station has not sent a BITS-packet that specifies another "Bit sense" (a BITS-packet specify the state of the bits that match the BIT labels)